Rocca di Papa, Italy

2:18 AM CET on February 06, 2016 (GMT +0100)
Rocca di Papa | | Change Station
CLOSE
Current Station
Personal Weather Station
Location: RdP - Roma, IT
Elevation: 2263 ft
Nearby Weather Stations

Elev 2263 ft 41.76 °N, 12.71 °E | Updated 12 days ago

Clear
Clear
42 °F
Feels Like 40 °F
N
5
Wind Variable Wind from ESE
Gusts mph

Today
High -- | Low -- °F
--% Chance of Precip.
Yesterday
High -- | Low -- °F
Precip. -- in
Pressure 30.39 in
Visibility 6.2 miles
Clouds Mostly Cloudy 3000 ft
Windchill 40 °F
Dew Point 32 °F
Humidity 67%
Rainfall in
Snow Depth Not available.
7:16 AM 5:30 PM
Waning Crescent, 8% visible
METAR LIRE 060055Z 10011KT 9999 BKN030 09/05 Q1029 RMK BKN VIS MIN 9999 WIND THR13 12007KT WIND THR31 12010KT BLU
Pressure 30.39 in
Visibility 6.2 miles
Clouds Mostly Cloudy 3000 ft
Windchill 40 °F
Dew Point 32 °F
Humidity 67%
Rainfall in
Snow Depth Not available.
7:16 AM 5:30 PM
Waning Crescent, 8% visible
METAR LIRE 060055Z 10011KT 9999 BKN030 09/05 Q1029 RMK BKN VIS MIN 9999 WIND THR13 12007KT WIND THR31 12010KT BLU

10-Day Weather Forecast

Almanac

Astronomy

Feb. 06, 2016 Rise Set
Actual Time
Civil Twilight
Nautical Twilight
Astronomical Twilight
Moon
Length of Visible Light
Length of Day
Tomorrow will be .
, % of the Moon is Illuminated

Today's Extremes

Country Highs Country Lows

Community

WunderPhotos

Upload Photos

1,890,904 photos uploaded!

WunderBlog® & News

Nearby

Air Quality

  Air Quality AQ Index Pollutant
Not available.

Snow Depth

Station Depth Elevation

Earthquake Activity

City Distance Mag. Time & Date
Minimum magnitude displayed is 2.5.

Coastal Water Temperatures

Place Temperature

Stations

Nearby Weather Stations

Station Location Temp. Windchill Dew Point Humidity Wind Precip. Elev Updated Type